Time;durP1;ratioP1;P1;durP2;ratioP2;P2;SDS_P1;SDS_P2;PMS_P1;PMS_P2;Temp;Humidity;BMP_temperature;BMP_pressure;BME280_temperature;BME280_humidity;BME280_pressure;Samples;Min_cycle;Max_cycle;Signal;HPM_P1;HPM_P2
2022/07/06 00:01:39;;;;;;;1.37;0.67;;;;;;;17.17;69.02;101552.97;5033497;28;20490;-67
2022/07/06 00:04:06;;;;;;;1.43;0.67;;;;;;;17.12;69.86;101553.13;5033424;28;20549;-68
2022/07/06 00:06:33;;;;;;;1.20;0.83;;;;;;;17.11;69.76;101554.28;5033423;28;20534;-68
2022/07/06 00:09:02;;;;;;;1.30;0.70;;;;;;;17.09;70.62;101553.81;5033294;28;20479;-68
2022/07/06 00:11:29;;;;;;;0.90;0.70;;;;;;;17.03;70.95;101560.53;5033350;28;20546;-67
2022/07/06 00:13:56;;;;;;;0.97;0.70;;;;;;;16.95;71.07;101559.41;5033225;28;20471;-69
2022/07/06 00:16:24;;;;;;;0.90;0.70;;;;;;;16.99;70.70;101560.38;5033227;28;20878;-68
2022/07/06 00:18:50;;;;;;;4.40;1.13;;;;;;;16.88;71.50;101559.88;5033216;28;20525;-68
2022/07/06 00:21:17;;;;;;;6.90;1.00;;;;;;;16.81;72.28;101561.47;5033650;28;20467;-68
2022/07/06 00:23:44;;;;;;;1.10;0.80;;;;;;;16.63;72.74;101558.66;5032901;28;20503;-68
2022/07/06 00:26:12;;;;;;;3.47;1.00;;;;;;;16.57;73.86;101554.47;5032999;28;20530;-67
2022/07/06 00:28:39;;;;;;;1.10;0.80;;;;;;;16.55;74.29;101562.19;5032928;28;20529;-68
2022/07/06 00:31:06;;;;;;;1.00;0.70;;;;;;;16.57;73.41;101567.34;5033235;28;20518;-68
2022/07/06 00:33:33;;;;;;;0.70;0.50;;;;;;;16.48;73.69;101564.59;5033094;28;20835;-67
2022/07/06 00:35:59;;;;;;;0.90;0.70;;;;;;;16.39;73.57;101567.28;5033123;28;20481;-68
2022/07/06 00:38:26;;;;;;;1.63;0.90;;;;;;;16.30;74.45;101574.66;5032746;28;20568;-67
2022/07/06 00:40:53;;;;;;;1.20;0.80;;;;;;;16.32;74.66;101572.41;5033204;28;20531;-69
2022/07/06 00:43:21;;;;;;;1.70;0.90;;;;;;;16.32;74.94;101564.19;5032755;28;20514;-67
2022/07/06 00:45:47;;;;;;;1.00;0.70;;;;;;;16.35;74.94;101569.03;5033034;28;20442;-68
2022/07/06 00:48:14;;;;;;;0.90;0.73;;;;;;;16.31;74.92;101562.59;5032742;28;20440;-67
2022/07/06 00:50:41;;;;;;;0.90;0.70;;;;;;;16.27;75.65;101569.81;5033026;28;20526;-68
2022/07/06 00:53:08;;;;;;;0.90;0.80;;;;;;;16.21;75.35;101573.81;5032888;28;20459;-68
2022/07/06 00:55:39;;;;;;;1.63;1.03;;;;;;;16.20;74.78;101585.84;5033266;28;20490;-68
2022/07/06 00:58:06;;;;;;;1.80;0.77;;;;;;;16.23;71.25;101585.22;5036777;28;20471;-68
2022/07/06 01:00:35;;;;;;;0.90;0.70;;;;;;;16.20;73.07;101580.38;5037100;28;20474;-67
2022/07/06 01:03:02;;;;;;;1.87;1.07;;;;;;;16.12;72.21;101581.16;5036589;28;20516;-68
2022/07/06 01:05:29;;;;;;;0.90;0.50;;;;;;;16.06;72.64;101569.53;5036758;28;20446;-68
2022/07/06 01:07:56;;;;;;;0.80;0.70;;;;;;;16.02;74.37;101571.28;5036720;28;20526;-68
2022/07/06 01:10:24;;;;;;;1.37;0.97;;;;;;;16.05;75.15;101569.88;5036876;28;20436;-67
2022/07/06 01:12:51;;;;;;;4.00;0.97;;;;;;;16.07;75.17;101571.19;5036391;28;20486;-67
2022/07/06 01:15:19;;;;;;;1.47;0.77;;;;;;;16.06;75.57;101571.47;5036288;28;20526;-67
2022/07/06 01:17:48;;;;;;;0.90;0.60;;;;;;;16.02;76.67;101573.22;5036249;28;20482;-68
2022/07/06 01:20:16;;;;;;;1.10;0.80;;;;;;;15.95;77.64;101570.13;5036037;28;20635;-67
2022/07/06 01:22:43;;;;;;;1.50;1.00;;;;;;;16.05;77.24;101565.19;5036332;28;20524;-67
2022/07/06 01:25:10;;;;;;;1.30;0.83;;;;;;;16.09;76.68;101565.38;5036289;28;20542;-66
2022/07/06 01:27:38;;;;;;;1.50;1.00;;;;;;;16.08;76.77;101563.78;5036009;28;20534;-67
2022/07/06 01:30:07;;;;;;;4.50;0.97;;;;;;;16.04;77.40;101574.53;5036205;28;20451;-71
2022/07/06 01:32:34;;;;;;;1.40;1.00;;;;;;;16.04;77.15;101569.06;5036093;28;20439;-66
2022/07/06 01:35:01;;;;;;;2.57;0.90;;;;;;;16.10;77.00;101567.00;5035748;28;20546;-67
2022/07/06 01:37:29;;;;;;;1.67;0.87;;;;;;;16.16;76.23;101563.03;5035687;28;20946;-67
2022/07/06 01:39:59;;;;;;;1.00;0.80;;;;;;;16.13;77.42;101569.09;5035892;28;20537;-67
2022/07/06 01:42:25;;;;;;;1.30;0.70;;;;;;;16.14;77.51;101567.97;5036175;28;20487;-68
2022/07/06 01:44:52;;;;;;;1.10;0.70;;;;;;;16.15;77.30;101561.38;5036025;28;20449;-66
2022/07/06 01:47:18;;;;;;;2.10;1.13;;;;;;;16.26;76.86;101562.72;5035901;28;20443;-66
2022/07/06 01:49:45;;;;;;;1.27;0.80;;;;;;;16.27;77.14;101569.81;5035822;28;20569;-67
2022/07/06 01:52:12;;;;;;;1.20;0.80;;;;;;;16.34;74.97;101561.97;5035733;28;20453;-67
2022/07/06 01:54:40;;;;;;;0.73;0.67;;;;;;;16.36;74.00;101570.66;5035662;28;20553;-67
2022/07/06 01:57:06;;;;;;;0.90;0.70;;;;;;;16.39;73.39;101570.03;5035663;28;20534;-67
2022/07/06 01:59:33;;;;;;;1.20;0.93;;;;;;;16.45;74.15;101584.34;5035716;28;20475;-67
2022/07/06 02:02:00;;;;;;;1.43;0.80;;;;;;;16.43;74.81;101574.88;5035620;28;20533;-67
2022/07/06 02:04:27;;;;;;;1.23;0.67;;;;;;;16.48;75.95;101599.34;5035578;28;20521;-67
2022/07/06 02:06:53;;;;;;;0.90;0.63;;;;;;;16.45;76.51;101599.97;5034860;28;21014;-67
2022/07/06 02:09:20;;;;;;;1.13;0.87;;;;;;;16.26;80.78;101595.53;5034981;28;20525;-66
2022/07/06 02:11:48;;;;;;;0.97;0.80;;;;;;;15.92;85.70;101589.88;5035375;28;20542;-66
2022/07/06 02:14:15;;;;;;;2.73;1.47;;;;;;;15.61;90.04;101591.41;5035135;28;20494;-66
2022/07/06 02:16:42;;;;;;;1.37;0.90;;;;;;;15.36;95.25;101590.09;5034932;28;20441;-66
2022/07/06 02:19:08;;;;;;;1.70;1.10;;;;;;;15.33;99.63;101590.72;5035044;28;20566;-66
2022/07/06 02:21:35;;;;;;;2.40;1.20;;;;;;;15.39;98.51;101585.94;5034741;28;20443;-66
2022/07/06 02:24:01;;;;;;;3.10;1.53;;;;;;;15.37;99.27;101596.38;5034797;28;20990;-66
2022/07/06 02:26:28;;;;;;;1.40;0.97;;;;;;;15.31;100.00;101600.31;5035138;28;20436;-66
2022/07/06 02:28:56;;;;;;;1.40;1.00;;;;;;;15.26;100.00;101595.78;5035009;28;20525;-66
2022/07/06 02:31:23;;;;;;;4.47;1.40;;;;;;;15.28;100.00;101590.84;5035167;28;20474;-66
2022/07/06 02:33:49;;;;;;;1.53;1.10;;;;;;;15.31;100.00;101601.13;5035156;28;20546;-66
2022/07/06 02:36:16;;;;;;;2.10;1.50;;;;;;;15.33;100.00;101595.38;5034675;28;20941;-66
2022/07/06 02:38:42;;;;;;;2.53;1.30;;;;;;;15.37;100.00;101597.19;5034930;28;20586;-66
2022/07/06 02:41:09;;;;;;;2.60;1.40;;;;;;;15.42;100.00;101596.25;5034895;28;20536;-66
2022/07/06 02:43:38;;;;;;;1.43;0.70;;;;;;;15.31;100.00;101595.66;5034616;28;20557;-66
2022/07/06 02:46:06;;;;;;;1.23;0.87;;;;;;;15.34;100.00;101600.50;5034485;28;20440;-66
2022/07/06 02:48:32;;;;;;;1.40;1.27;;;;;;;15.36;100.00;101601.03;5034816;28;20445;-66
2022/07/06 02:50:59;;;;;;;1.63;1.20;;;;;;;15.28;100.00;101596.28;5034514;28;20453;-66
2022/07/06 02:53:26;;;;;;;1.90;0.83;;;;;;;15.30;100.00;101601.44;5034360;28;20467;-66
2022/07/06 02:55:52;;;;;;;1.57;0.77;;;;;;;15.25;100.00;101601.56;5034539;28;20881;-67
2022/07/06 02:58:19;;;;;;;2.30;1.40;;;;;;;15.29;100.00;101606.09;5034151;28;20482;-66
2022/07/06 03:00:45;;;;;;;2.00;1.10;;;;;;;15.29;100.00;101603.38;5034415;28;20531;-66
2022/07/06 03:03:13;;;;;;;1.27;0.80;;;;;;;15.36;100.00;101608.38;5033952;28;20546;-67
2022/07/06 03:05:40;;;;;;;1.80;1.40;;;;;;;15.38;100.00;101606.97;5034003;28;20542;-67
2022/07/06 03:08:07;;;;;;;3.13;1.23;;;;;;;15.36;100.00;101609.22;5034181;28;20522;-67
2022/07/06 03:10:33;;;;;;;2.23;1.10;;;;;;;15.38;100.00;101608.91;5034167;28;20522;-67
2022/07/06 03:13:00;;;;;;;2.17;1.20;;;;;;;15.37;100.00;101616.28;5034303;28;20550;-67
2022/07/06 03:15:26;;;;;;;2.40;1.07;;;;;;;15.42;100.00;101618.09;5033783;28;20799;-68
2022/07/06 03:17:53;;;;;;;3.43;1.40;;;;;;;15.43;100.00;101613.44;5034126;28;20486;-68
2022/07/06 03:20:21;;;;;;;1.83;1.30;;;;;;;15.49;100.00;101614.91;5033049;28;20450;-67
2022/07/06 03:22:47;;;;;;;2.10;1.23;;;;;;;15.42;100.00;101617.28;5033923;28;20471;-68
2022/07/06 03:25:14;;;;;;;1.73;1.00;;;;;;;15.33;100.00;101614.47;5033959;28;20458;-68
2022/07/06 03:27:41;;;;;;;2.13;1.23;;;;;;;15.23;100.00;101615.53;5033933;28;20443;-67
2022/07/06 03:30:08;;;;;;;1.40;1.23;;;;;;;15.21;100.00;101616.94;5034037;28;20530;-67
2022/07/06 03:32:34;;;;;;;3.57;1.37;;;;;;;15.14;99.43;101611.91;5033823;28;20522;-67
2022/07/06 03:35:01;;;;;;;1.50;1.03;;;;;;;15.08;100.00;101613.13;5033959;28;20816;-67
2022/07/06 03:37:29;;;;;;;1.93;1.37;;;;;;;15.07;100.00;101612.31;5033736;28;20434;-67
2022/07/06 03:39:56;;;;;;;0.90;0.70;;;;;;;15.12;100.00;101604.00;5033846;28;20457;-68
2022/07/06 03:42:22;;;;;;;1.20;1.00;;;;;;;15.10;100.00;101605.44;5033513;28;20447;-68
2022/07/06 03:44:49;;;;;;;1.30;1.00;;;;;;;15.10;100.00;101606.25;5033811;28;20546;-67
2022/07/06 03:47:15;;;;;;;3.40;0.90;;;;;;;15.26;100.00;101608.63;5033689;28;20453;-67
2022/07/06 03:49:42;;;;;;;1.10;0.90;;;;;;;15.24;100.00;101608.94;5085754;22;20492;-72
2022/07/06 03:52:08;;;;;;;1.17;1.07;;;;;;;15.30;100.00;101610.44;5073436;28;20532;-72
2022/07/06 03:54:36;;;;;;;9.20;1.27;;;;;;;15.42;100.00;101617.28;5073400;28;20447;-71
2022/07/06 03:57:04;;;;;;;1.70;1.10;;;;;;;15.43;100.00;101618.91;5073355;28;20441;-72
2022/07/06 03:59:30;;;;;;;1.37;1.00;;;;;;;15.40;100.00;101612.13;5073495;28;20572;-71
2022/07/06 04:01:57;;;;;;;1.17;0.93;;;;;;;15.46;100.00;101615.56;5073415;28;20492;-71
2022/07/06 04:04:23;;;;;;;1.37;1.20;;;;;;;15.48;100.00;101618.78;5073239;28;20445;-72
2022/07/06 04:06:50;;;;;;;1.43;1.13;;;;;;;15.52;100.00;101611.59;5072911;28;21006;-70
2022/07/06 04:09:17;;;;;;;5.37;1.27;;;;;;;15.52;100.00;101615.13;5073153;28;20459;-71
2022/07/06 04:11:45;;;;;;;2.10;1.30;;;;;;;15.51;100.00;101616.25;5072825;28;20515;-71
2022/07/06 04:14:11;;;;;;;2.30;1.57;;;;;;;15.51;100.00;101615.44;5073200;28;20481;-72
2022/07/06 04:16:38;;;;;;;1.90;1.43;;;;;;;15.48;100.00;101621.50;5072775;28;20524;-71
2022/07/06 04:19:04;;;;;;;1.30;1.03;;;;;;;15.52;100.00;101622.50;5072977;28;20513;-71
2022/07/06 04:21:31;;;;;;;2.03;1.30;;;;;;;15.53;100.00;101619.47;5073170;28;20447;-72
2022/07/06 04:23:58;;;;;;;2.53;1.03;;;;;;;15.53;98.34;101624.91;5073256;28;20532;-71
2022/07/06 04:26:24;;;;;;;1.87;1.30;;;;;;;15.51;97.35;101631.81;5073128;28;20539;-72
2022/07/06 04:28:52;;;;;;;2.40;1.57;;;;;;;15.48;96.64;101622.31;5072799;28;20991;-71
2022/07/06 04:31:19;;;;;;;1.30;1.00;;;;;;;15.44;96.74;101620.50;5075189;28;20529;-71
2022/07/06 04:33:46;;;;;;;1.20;0.80;;;;;;;15.39;95.22;101622.22;5077224;28;20532;-72
2022/07/06 04:36:12;;;;;;;2.00;1.27;;;;;;;15.47;94.59;101626.16;5077122;28;20436;-72
2022/07/06 04:38:39;;;;;;;1.53;1.07;;;;;;;15.52;95.70;101625.25;5076827;28;20937;-71
2022/07/06 04:41:05;;;;;;;3.57;1.03;;;;;;;15.56;97.12;101620.78;5077107;28;20520;-71
2022/07/06 04:43:32;;;;;;;2.10;1.20;;;;;;;15.56;96.60;101612.59;5077232;28;20875;-71
2022/07/06 04:46:01;;;;;;;2.47;1.37;;;;;;;15.61;96.23;101616.00;5076722;28;20804;-72
2022/07/06 04:48:27;;;;;;;1.20;1.10;;;;;;;15.64;93.42;101615.41;5076834;28;20479;-71
2022/07/06 04:50:54;;;;;;;2.20;1.13;;;;;;;15.63;91.70;101618.44;5077281;28;20426;-76
2022/07/06 04:53:21;;;;;;;1.63;0.90;;;;;;;15.67;91.85;101621.34;5076790;28;20947;-71
2022/07/06 04:55:47;;;;;;;4.80;1.23;;;;;;;15.65;92.52;101621.69;5076901;28;20437;-71
2022/07/06 04:58:14;;;;;;;0.90;0.60;;;;;;;15.71;92.95;101616.88;5076322;28;20571;-72
2022/07/06 05:00:40;;;;;;;1.03;0.70;;;;;;;15.80;93.41;101615.03;5076844;28;20524;-72
2022/07/06 05:03:08;;;;;;;1.10;1.00;;;;;;;15.82;92.59;101613.63;5076866;28;20443;-68
2022/07/06 05:05:35;;;;;;;2.10;1.30;;;;;;;15.84;88.98;101610.56;5076305;28;20970;-69
2022/07/06 05:08:02;;;;;;;1.90;1.20;;;;;;;15.85;88.47;101617.66;5076903;28;20455;-70
2022/07/06 05:10:28;;;;;;;1.10;0.67;;;;;;;15.87;87.77;101618.13;5076790;28;20507;-69
2022/07/06 05:12:56;;;;;;;1.30;1.00;;;;;;;15.95;88.50;101627.53;5076376;28;20942;-69
2022/07/06 05:15:22;;;;;;;3.50;0.90;;;;;;;15.98;85.91;101626.88;5076484;28;20437;-69
2022/07/06 05:17:49;;;;;;;0.97;0.80;;;;;;;15.96;86.15;101637.31;5076447;28;20537;-70
2022/07/06 05:20:17;;;;;;;3.70;0.97;;;;;;;15.96;87.16;101631.88;5076188;28;20503;-71
2022/07/06 05:22:43;;;;;;;1.23;1.07;;;;;;;16.01;85.90;101629.00;5075955;28;20443;-70
2022/07/06 05:25:10;;;;;;;2.47;1.20;;;;;;;16.09;84.74;101630.97;5076254;28;20446;-71
2022/07/06 05:27:37;;;;;;;2.30;0.90;;;;;;;16.11;86.38;101635.03;5076042;28;20963;-70
2022/07/06 05:30:04;;;;;;;1.53;0.70;;;;;;;16.21;87.86;101630.41;5075860;28;20603;-70
2022/07/06 05:32:31;;;;;;;3.73;0.93;;;;;;;16.21;84.56;101633.16;5076047;28;20520;-70
2022/07/06 05:34:58;;;;;;;1.00;0.70;;;;;;;16.22;83.01;101640.22;5075838;28;20997;-71
2022/07/06 05:37:26;;;;;;;1.20;0.80;;;;;;;16.28;85.16;101633.50;5076015;28;20449;-70
2022/07/06 05:39:52;;;;;;;0.90;0.60;;;;;;;16.34;83.59;101635.78;5075510;28;21104;-71
2022/07/06 05:42:19;;;;;;;1.20;0.87;;;;;;;16.38;85.83;101628.56;5074741;28;20445;-71
2022/07/06 05:44:45;;;;;;;1.40;0.90;;;;;;;16.37;81.87;101631.59;5075583;28;21004;-71
2022/07/06 05:50:14;;;;;;;16.70;1.30;;;;;;;16.42;84.07;101634.19;5075684;28;20499;-71
2022/07/06 05:52:44;;;;;;;2.07;1.13;;;;;;;16.46;80.98;101632.44;5076207;28;20432;-70
2022/07/06 05:55:11;;;;;;;1.00;0.77;;;;;;;16.40;81.39;101631.78;5075810;28;20425;-70
2022/07/06 05:57:39;;;;;;;1.07;0.80;;;;;;;16.40;82.91;101634.53;5075762;28;20536;-70
2022/07/06 06:00:08;;;;;;;0.90;0.60;;;;;;;16.50;82.00;101640.84;5075109;28;20485;-69
2022/07/06 06:02:39;;;;;;;1.50;0.90;;;;;;;16.62;81.79;101638.31;5075888;28;20441;-70
2022/07/06 06:05:07;;;;;;;1.77;1.07;;;;;;;16.67;80.55;101634.63;5075565;28;20857;-71
2022/07/06 06:07:35;;;;;;;3.80;1.13;;;;;;;16.70;80.55;101636.75;5075557;28;20448;-70
2022/07/06 06:10:04;;;;;;;18.73;1.50;;;;;;;16.70;81.36;101623.88;5075621;28;20466;-71
2022/07/06 06:12:33;;;;;;;1.33;0.83;;;;;;;16.81;80.63;101632.63;5075357;28;20445;-70
2022/07/06 06:15:00;;;;;;;3.27;1.17;;;;;;;16.77;79.46;101635.19;5075342;28;20469;-71
2022/07/06 06:17:26;;;;;;;1.80;1.13;;;;;;;16.80;80.86;101637.28;5074911;28;20524;-70
2022/07/06 06:19:53;;;;;;;2.13;0.80;;;;;;;16.84;80.04;101634.72;5075149;28;20488;-70
2022/07/06 06:22:20;;;;;;;1.53;0.83;;;;;;;16.85;79.70;101642.63;5075240;28;20492;-70
2022/07/06 06:24:46;;;;;;;1.57;1.17;;;;;;;16.86;80.22;101643.41;5075122;28;20459;-71
2022/07/06 06:27:14;;;;;;;1.73;0.87;;;;;;;16.90;79.50;101645.19;5075087;28;20476;-71
2022/07/06 06:29:41;;;;;;;1.50;0.80;;;;;;;17.06;79.49;101642.03;5074994;28;20468;-71
2022/07/06 06:32:08;;;;;;;1.10;0.70;;;;;;;17.19;78.49;101634.81;5075084;28;20575;-71
2022/07/06 06:34:35;;;;;;;1.27;0.70;;;;;;;17.22;78.61;101640.47;5074649;28;20509;-70
2022/07/06 06:37:01;;;;;;;4.70;0.90;;;;;;;17.37;78.65;101633.69;5074540;28;21034;-71
2022/07/06 06:39:28;;;;;;;1.10;0.77;;;;;;;17.34;76.43;101637.06;5074920;28;20485;-70
2022/07/06 06:41:55;;;;;;;1.00;0.70;;;;;;;17.42;77.33;101636.28;5074573;28;21033;-71
2022/07/06 06:44:23;;;;;;;4.73;0.73;;;;;;;17.42;77.55;101640.97;5074733;28;20429;-69
2022/07/06 06:46:50;;;;;;;1.93;0.83;;;;;;;17.49;75.49;101644.84;5074462;28;20947;-70
2022/07/06 06:49:17;;;;;;;1.30;0.83;;;;;;;17.47;72.63;101636.13;5074456;28;20576;-71
2022/07/06 06:51:44;;;;;;;1.00;0.60;;;;;;;17.63;73.59;101639.19;5074684;28;20433;-71
2022/07/06 06:54:10;;;;;;;1.77;0.73;;;;;;;17.82;75.60;101642.44;5074303;28;20533;-72
2022/07/06 06:56:37;;;;;;;2.20;0.60;;;;;;;17.95;68.64;101645.31;5074279;28;20528;-71
2022/07/06 06:59:04;;;;;;;0.87;0.60;;;;;;;17.98;69.74;101648.22;5074023;28;21002;-71
2022/07/06 07:01:32;;;;;;;0.90;0.60;;;;;;;18.00;66.81;101647.88;5074456;28;20529;-70
2022/07/06 07:03:59;;;;;;;12.23;1.00;;;;;;;18.05;66.22;101644.97;5074330;28;20810;-72
2022/07/06 07:06:26;;;;;;;1.00;0.57;;;;;;;18.03;66.48;101652.72;5074643;28;20444;-73
2022/07/06 07:08:53;;;;;;;0.93;0.63;;;;;;;18.20;65.38;101646.41;5074328;28;20453;-71
2022/07/06 07:11:19;;;;;;;2.60;1.00;;;;;;;18.21;67.31;101643.34;5075769;28;20827;-80
2022/07/06 07:13:46;;;;;;;1.33;0.93;;;;;;;18.24;65.13;101648.16;5077528;28;20957;-72
2022/07/06 07:16:13;;;;;;;1.20;0.50;;;;;;;18.12;68.54;101648.03;5074117;28;21025;-71
2022/07/06 07:18:40;;;;;;;0.70;0.50;;;;;;;18.23;66.87;101645.75;5073877;28;20544;-73
2022/07/06 07:21:07;;;;;;;2.07;0.73;;;;;;;18.34;65.85;101656.03;5074108;28;20437;-72
2022/07/06 07:23:34;;;;;;;3.90;0.73;;;;;;;18.56;64.27;101656.94;5073671;28;20955;-73
2022/07/06 07:26:00;;;;;;;1.30;0.63;;;;;;;18.75;62.39;101651.88;5073698;28;20449;-74
2022/07/06 07:28:27;;;;;;;13.00;0.93;;;;;;;18.89;60.13;101659.88;5073845;28;20458;-73
2022/07/06 07:30:54;;;;;;;3.87;0.87;;;;;;;18.93;60.50;101652.59;5073894;28;20813;-72
2022/07/06 07:33:20;;;;;;;0.90;0.47;;;;;;;18.68;61.76;101654.28;5073899;28;20463;-75
2022/07/06 07:35:48;;;;;;;0.90;0.47;;;;;;;18.74;61.29;101661.25;5073583;28;21038;-74
2022/07/06 07:38:15;;;;;;;1.80;0.73;;;;;;;18.84;62.27;101652.63;5073720;28;20533;-73
2022/07/06 07:40:42;;;;;;;0.80;0.40;;;;;;;18.81;62.73;101658.78;5073668;28;20576;-70
2022/07/06 07:43:09;;;;;;;1.63;0.60;;;;;;;18.74;62.74;101650.28;5073809;28;20433;-72
2022/07/06 07:45:35;;;;;;;0.90;0.60;;;;;;;18.84;63.39;101655.38;5073529;28;20528;-72
2022/07/06 07:48:02;;;;;;;0.90;0.50;;;;;;;18.90;62.00;101662.31;5073445;28;20528;-73
2022/07/06 07:50:29;;;;;;;13.03;1.00;;;;;;;19.03;61.21;101659.63;5073302;28;20528;-72
2022/07/06 07:52:57;;;;;;;1.20;0.73;;;;;;;18.92;60.87;101667.47;5073513;28;20473;-73
2022/07/06 07:55:24;;;;;;;1.53;0.73;;;;;;;18.95;61.23;101663.22;5073504;28;20437;-72
2022/07/06 07:57:50;;;;;;;0.70;0.50;;;;;;;18.94;60.49;101665.19;5073214;28;21021;-72
2022/07/06 08:00:17;;;;;;;0.87;0.60;;;;;;;18.99;60.00;101661.44;5073012;28;20520;-72
2022/07/06 08:02:44;;;;;;;0.60;0.33;;;;;;;18.81;58.98;101656.03;5073731;28;20483;-72
2022/07/06 08:05:13;;;;;;;0.80;0.60;;;;;;;18.79;58.79;101655.56;5072757;28;20446;-71
2022/07/06 08:07:40;;;;;;;0.70;0.43;;;;;;;18.93;59.30;101658.09;5073325;28;20452;-72
2022/07/06 08:10:09;;;;;;;2.77;0.70;;;;;;;19.14;57.20;101658.94;5073270;28;21051;-71
2022/07/06 08:12:36;;;;;;;1.00;0.60;;;;;;;19.30;57.11;101659.16;5073059;28;20954;-73
2022/07/06 08:15:03;;;;;;;1.50;0.80;;;;;;;19.41;57.48;101656.81;5072996;28;20523;-72
2022/07/06 08:17:30;;;;;;;0.70;0.40;;;;;;;19.44;58.71;101671.84;5073238;28;20489;-72
2022/07/06 08:19:57;;;;;;;5.47;0.57;;;;;;;19.61;55.98;101668.97;5073163;28;20487;-72
2022/07/06 08:22:24;;;;;;;0.97;0.60;;;;;;;19.69;56.75;101661.78;5073198;28;20447;-71
2022/07/06 08:24:50;;;;;;;1.10;0.67;;;;;;;19.81;52.68;101670.09;5073771;28;20448;-73
2022/07/06 08:27:18;;;;;;;1.90;0.83;;;;;;;19.91;52.96;101666.94;5073368;28;20495;-71
2022/07/06 08:29:45;;;;;;;1.07;0.50;;;;;;;19.91;52.50;101670.47;5073373;28;20492;-73
2022/07/06 08:32:12;;;;;;;1.53;0.53;;;;;;;19.85;52.78;101665.53;5073010;28;20441;-73
2022/07/06 08:34:38;;;;;;;0.80;0.50;;;;;;;19.78;51.43;101663.31;5073046;28;20465;-75
2022/07/06 08:37:05;;;;;;;1.70;0.70;;;;;;;19.67;52.42;101664.88;5073086;28;20532;-73
2022/07/06 08:39:32;;;;;;;0.80;0.40;;;;;;;19.86;53.96;101676.19;5072844;28;20492;-76
2022/07/06 08:42:01;;;;;;;0.73;0.50;;;;;;;19.97;52.90;101667.53;5073073;28;20541;-74
2022/07/06 08:44:30;;;;;;;1.33;0.53;;;;;;;20.12;51.66;101666.91;5073277;28;20541;-73
2022/07/06 08:46:58;;;;;;;0.80;0.50;;;;;;;20.01;51.42;101666.53;5073369;28;20441;-75
2022/07/06 08:49:27;;;;;;;0.60;0.30;;;;;;;19.83;51.34;101667.81;5072636;28;20559;-71
2022/07/06 08:51:54;;;;;;;4.30;0.80;;;;;;;19.91;52.21;101659.47;5072888;28;20823;-69
2022/07/06 08:54:22;;;;;;;1.53;0.50;;;;;;;20.12;50.72;101664.16;5072901;28;20524;-71
2022/07/06 08:56:49;;;;;;;0.70;0.30;;;;;;;20.06;50.17;101662.75;5072869;28;20448;-70
2022/07/06 08:59:16;;;;;;;0.70;0.40;;;;;;;20.12;50.98;101664.94;5072603;28;20556;-72
2022/07/06 09:01:45;;;;;;;1.57;0.60;;;;;;;20.27;50.29;101652.47;5072586;28;20430;-70
2022/07/06 09:04:13;;;;;;;0.87;0.57;;;;;;;20.42;48.85;101668.34;5072959;28;20445;-73
2022/07/06 09:06:43;;;;;;;0.83;0.50;;;;;;;20.42;48.56;101665.59;5072801;28;20467;-73
2022/07/06 09:09:11;;;;;;;1.10;0.50;;;;;;;20.57;48.42;101671.59;5072698;28;20450;-72
2022/07/06 09:11:38;;;;;;;0.90;0.50;;;;;;;20.52;48.85;101671.84;5072790;28;20536;-73
2022/07/06 09:14:05;;;;;;;2.63;0.60;;;;;;;20.39;49.51;101674.53;5072799;28;20536;-72
2022/07/06 09:16:32;;;;;;;0.77;0.47;;;;;;;20.45;50.06;101674.31;5073272;28;20520;-72
2022/07/06 09:19:00;;;;;;;0.97;0.47;;;;;;;20.40;48.45;101673.38;5076242;28;20464;-71
2022/07/06 09:21:31;;;;;;;0.63;0.40;;;;;;;20.26;49.00;101675.66;5076284;28;20567;-72
2022/07/06 09:24:00;;;;;;;3.40;0.60;;;;;;;20.30;49.43;101676.56;5076321;28;20440;-72
2022/07/06 09:26:27;;;;;;;0.80;0.60;;;;;;;20.38;49.06;101678.44;5076198;28;20485;-73
2022/07/06 09:28:56;;;;;;;0.93;0.60;;;;;;;20.22;50.73;101671.97;5076246;28;20461;-73
2022/07/06 09:31:23;;;;;;;2.30;0.80;;;;;;;20.27;50.96;101671.75;5076354;28;20445;-72
2022/07/06 09:34:05;;;;;;;1.03;0.50;;;;;;;20.21;49.43;101686.88;5076086;28;20528;-72
2022/07/06 09:36:39;;;;;;;1.63;0.53;;;;;;;20.11;49.36;101681.81;5076136;28;20422;-72
2022/07/06 09:39:20;;;;;;;0.80;0.50;;;;;;;20.05;49.72;101688.63;5075554;28;20989;-71
2022/07/06 09:41:47;;;;;;;0.70;0.50;;;;;;;19.83;49.40;101690.63;5075880;28;20559;-72
2022/07/06 09:44:18;;;;;;;0.83;0.80;;;;;;;19.62;51.39;101696.13;5075913;28;20543;-73
2022/07/06 09:46:47;;;;;;;0.87;0.60;;;;;;;19.59;51.17;101691.28;5075975;28;20843;-72
2022/07/06 09:49:18;;;;;;;1.27;0.50;;;;;;;19.62;50.95;101689.84;5075610;28;20483;-73
2022/07/06 09:51:45;;;;;;;0.87;0.50;;;;;;;19.70;52.15;101685.38;5075861;28;20441;-73
2022/07/06 09:54:12;;;;;;;1.73;0.40;;;;;;;19.91;52.45;101691.69;5075683;28;20536;-72
2022/07/06 09:56:39;;;;;;;0.83;0.50;;;;;;;19.89;51.48;101689.28;5075641;28;20433;-72
2022/07/06 09:59:13;;;;;;;0.70;0.50;;;;;;;19.87;51.98;101691.53;5075508;28;20552;-72
2022/07/06 10:01:40;;;;;;;0.90;0.40;;;;;;;19.98;51.61;101682.91;5075437;28;21021;-71
2022/07/06 10:04:07;;;;;;;1.37;0.30;;;;;;;20.00;51.79;101688.84;5075383;28;20533;-72
2022/07/06 10:06:36;;;;;;;1.00;0.40;;;;;;;19.87;53.77;101690.75;5075634;28;20442;-72
2022/07/06 10:09:06;;;;;;;0.80;0.50;;;;;;;19.83;53.26;101685.13;5075435;28;20548;-73
2022/07/06 10:11:38;;;;;;;0.80;0.50;;;;;;;19.80;53.82;101685.81;5075174;28;20513;-72
2022/07/06 10:14:06;;;;;;;0.60;0.30;;;;;;;19.73;55.25;101691.03;5075460;28;20436;-72
2022/07/06 10:16:35;;;;;;;0.80;0.50;;;;;;;19.98;52.87;101691.16;5075049;28;20947;-74
2022/07/06 10:19:04;;;;;;;0.80;0.50;;;;;;;20.18;51.10;101682.03;5075495;28;20556;-70
2022/07/06 10:21:32;;;;;;;0.80;0.50;;;;;;;20.31;51.98;101680.94;5075336;28;20563;-74
2022/07/06 10:24:01;;;;;;;0.67;0.37;;;;;;;20.30;50.84;101676.56;5075264;28;20449;-72
2022/07/06 10:26:29;;;;;;;0.70;0.40;;;;;;;20.52;50.33;101682.84;5075226;28;20445;-72
2022/07/06 10:28:56;;;;;;;3.93;0.70;;;;;;;20.53;50.56;101682.50;5074539;28;20492;-72
2022/07/06 10:31:23;;;;;;;0.97;0.60;;;;;;;20.76;48.28;101682.88;5074967;28;20889;-71
2022/07/06 10:33:51;;;;;;;1.00;0.50;;;;;;;21.03;48.95;101681.38;5074803;28;21004;-73
2022/07/06 10:36:18;;;;;;;0.90;0.47;;;;;;;21.33;49.77;101679.19;5074994;28;20437;-73
2022/07/06 10:38:50;;;;;;;1.33;0.47;;;;;;;21.53;47.99;101680.19;5074622;28;20966;-72
2022/07/06 10:41:18;;;;;;;1.53;0.30;;;;;;;21.37;48.43;101674.59;5074730;28;20971;-72
2022/07/06 10:43:46;;;;;;;3.47;0.50;;;;;;;21.57;49.11;101675.59;5074932;28;20445;-73
2022/07/06 10:46:15;;;;;;;4.00;0.60;;;;;;;21.71;47.00;101677.16;5074790;28;20481;-73
2022/07/06 10:48:43;;;;;;;1.80;0.70;;;;;;;21.66;45.87;101670.72;5074389;28;20484;-72
2022/07/06 10:51:11;;;;;;;0.87;0.60;;;;;;;21.55;46.49;101674.31;5074277;28;20537;-72
2022/07/06 10:53:40;;;;;;;2.70;0.90;;;;;;;21.46;47.13;101665.38;5074538;28;20480;-71
2022/07/06 10:56:08;;;;;;;1.17;0.50;;;;;;;21.26;47.27;101676.19;5074517;28;20445;-71
2022/07/06 10:58:39;;;;;;;1.53;0.50;;;;;;;20.86;48.40;101676.91;5074636;28;20532;-71
2022/07/06 11:01:07;;;;;;;0.60;0.40;;;;;;;20.61;50.24;101675.28;5074200;28;20481;-71
2022/07/06 11:03:39;;;;;;;0.97;0.40;;;;;;;20.24;49.16;101685.41;5074777;28;20450;-71
2022/07/06 11:06:12;;;;;;;0.70;0.40;;;;;;;20.26;49.80;101683.09;5074314;28;20985;-70
2022/07/06 11:08:53;;;;;;;2.60;0.57;;;;;;;20.29;49.48;101679.69;5074463;28;20457;-72
2022/07/06 11:11:22;;;;;;;1.20;0.40;;;;;;;20.41;48.60;101686.00;5074248;28;20514;-73
2022/07/06 11:13:52;;;;;;;0.60;0.30;;;;;;;20.36;47.85;101680.72;5074696;28;20437;-74
2022/07/06 11:16:20;;;;;;;12.17;0.90;;;;;;;20.38;49.84;101681.19;5074300;28;20464;-70
2022/07/06 11:18:50;;;;;;;0.70;0.40;;;;;;;20.37;49.16;101687.84;5074180;28;20560;-69
2022/07/06 11:21:24;;;;;;;1.20;0.50;;;;;;;20.06;50.64;101682.00;5073682;28;20580;-70
2022/07/06 11:23:52;;;;;;;0.60;0.30;;;;;;;20.28;49.50;101686.34;5052026;28;20557;-72
2022/07/06 11:26:19;;;;;;;0.80;0.50;;;;;;;20.61;49.95;101692.59;5053584;28;21005;-73
2022/07/06 11:28:48;;;;;;;2.83;0.67;;;;;;;20.93;48.81;101679.06;5053728;28;20485;-71